Time;durP1;ratioP1;P1;durP2;ratioP2;P2;SDS_P1;SDS_P2;PMS_P1;PMS_P2;Temp;Humidity;BMP_temperature;BMP_pressure;BME280_temperature;BME280_humidity;BME280_pressure;Samples;Min_cycle;Max_cycle;Signal;HPM_P1;HPM_P2
2024/03/17 00:00:45;;;;;;;;;;;;;;;-144.99;100.00;52586.69;5005805;28;19931;-67
2024/03/17 00:03:12;;;;;;;;;;;;;;;-144.99;100.00;52550.00;4994880;28;19934;-68
2024/03/17 00:05:38;;;;;;;;;;;;;;;-144.99;100.00;52582.63;5001522;28;19961;-66
2024/03/17 00:08:05;;;;;;;;;;;;;;;-144.99;100.00;52550.00;5005813;28;19934;-67
2024/03/17 00:10:31;;;;;;;;;;;;;;;-144.99;100.00;52556.13;4994852;28;19971;-67
2024/03/17 00:12:58;;;;;;;;;;;;;;;-144.99;100.00;52562.25;4992829;28;19964;-68
2024/03/17 00:15:23;;;;;;;;;;;;;;;-144.99;100.00;52554.09;4994391;28;19925;-68
2024/03/17 00:17:50;;;;;;;;;;;;;;;-144.99;100.00;52611.16;4998637;28;20367;-68
2024/03/17 00:20:20;;;;;;;;;;;;;;;-144.99;100.00;52562.25;5005390;28;20300;-67
2024/03/17 00:22:48;;;;;;;;;;;;;;;-144.99;100.00;52578.53;5005557;28;19925;-67
2024/03/17 00:25:15;;;;;;;;;;;;;;;-144.99;100.00;52574.47;5004738;28;19937;-67
2024/03/17 00:27:43;;;;;;;;;;;;;;;-144.99;100.00;52562.25;4994201;28;19926;-69
2024/03/17 00:30:12;;;;;;;;;;;;;;;-144.99;100.00;52576.50;5005349;28;20311;-68
2024/03/17 00:32:38;;;;;;;;;;;;;;;-144.99;100.00;52541.84;5010094;28;19953;-68
2024/03/17 00:35:05;;;;;;;;;;;;;;;-144.99;100.00;52566.31;5009243;28;19955;-68
2024/03/17 00:37:31;;;;;;;;;;;;;;;-144.99;100.00;52580.59;5006753;28;19976;-67
2024/03/17 00:39:59;;;;;;;;;;;;;;;-144.99;100.00;52558.16;4663019;28;10000562;-68
2024/03/17 00:42:24;;;;;;;;;;;;;;;-144.99;100.00;52574.47;5009423;28;20655;-65
2024/03/17 00:44:50;;;;;;;;;;;;;;;-144.99;100.00;52594.84;5009711;28;20083;-62
2024/03/17 00:47:16;;;;;;;;;;;;;;;-144.99;100.00;52603.00;5004309;28;20296;-63
2024/03/17 00:49:42;;;;;;;;;;;;;;;-144.99;100.00;52545.94;5011007;28;19925;-62
2024/03/17 00:52:08;;;;;;;;;;;;;;;-144.99;100.00;52550.00;5009337;28;20273;-62
2024/03/17 00:54:34;;;;;;;;;;;;;;;-144.99;100.00;52562.25;5010676;28;19964;-62
2024/03/17 00:57:01;;;;;;;;;;;;;;;-144.99;100.00;52574.47;5008563;28;19976;-63
2024/03/17 00:59:28;;;;;;;;;;;;;;;-144.99;100.00;52556.13;5007892;28;19933;-64
2024/03/17 01:01:53;;;;;;;;;;;;;;;-144.99;100.00;52590.78;5009185;28;20029;-63
2024/03/17 01:04:20;;;;;;;;;;;;;;;-144.99;100.00;52537.78;5008727;28;20012;-64
2024/03/17 01:06:46;;;;;;;;;;;;;;;-144.99;100.00;52556.13;5011087;28;20336;-64
2024/03/17 01:09:12;;;;;;;;;;;;;;;-144.99;100.00;52564.28;5011113;28;19971;-63
2024/03/17 01:11:38;;;;;;;;;;;;;;;-144.99;100.00;52521.47;5008155;28;19969;-63
2024/03/17 01:14:07;;;;;;;;;;;;;;;-144.99;100.00;52570.38;5011006;28;19935;-64
2024/03/17 01:16:33;;;;;;;;;;;;;;;-144.99;100.00;52570.38;5010491;28;20348;-65
2024/03/17 01:18:59;;;;;;;;;;;;;;;-144.99;100.00;52527.59;5010565;28;19955;-65
2024/03/17 01:21:24;;;;;;;;;;;;;;;-144.99;100.00;52558.16;5010493;28;19926;-65
2024/03/17 01:23:51;;;;;;;;;;;;;;;-144.99;100.00;52562.25;5008558;28;19979;-65
2024/03/17 01:26:17;;;;;;;;;;;;;;;-144.99;100.00;52578.53;5003265;28;19932;-71
2024/03/17 01:28:43;;;;;;;;;;;;;;;-144.99;100.00;52562.25;5011214;28;19929;-72
2024/03/17 01:31:10;;;;;;;;;;;;;;;-144.99;100.00;52568.34;5010572;28;19926;-71
2024/03/17 01:33:36;;;;;;;;;;;;;;;-144.99;100.00;52594.84;5003021;28;20347;-71
2024/03/17 01:36:02;;;;;;;;;;;;;;;-144.99;100.00;52570.38;5004110;28;20353;-69
2024/03/17 01:38:29;;;;;;;;;;;;;;;-144.99;100.00;52521.47;5009275;28;19965;-69
2024/03/17 01:40:54;;;;;;;;;;;;;;;-144.99;100.00;52558.16;5009830;28;19938;-69
2024/03/17 01:43:21;;;;;;;;;;;;;;;-144.99;100.00;52598.94;5003350;28;20308;-72
2024/03/17 01:45:47;;;;;;;;;;;;;;;-144.99;100.00;52533.69;5010428;28;19932;-71
2024/03/17 01:48:16;;;;;;;;;;;;;;;-144.99;100.00;52572.44;5004520;28;20100;-72
2024/03/17 01:50:42;;;;;;;;;;;;;;;-144.99;100.00;52550.00;5003560;28;19995;-72
2024/03/17 01:53:10;;;;;;;;;;;;;;;-144.99;100.00;52586.69;5007642;28;19925;-71
2024/03/17 01:55:37;;;;;;;;;;;;;;;-144.99;100.00;52558.16;5004751;28;19930;-69
2024/03/17 01:58:07;;;;;;;;;;;;;;;-144.99;100.00;52558.16;5009607;28;20319;-69
2024/03/17 02:00:34;;;;;;;;;;;;;;;-144.99;100.00;52562.25;5010538;28;20012;-69
2024/03/17 02:03:00;;;;;;;;;;;;;;;-144.99;100.00;52574.47;5013855;28;19980;-69
2024/03/17 02:05:27;;;;;;;;;;;;;;;-144.99;100.00;52582.63;5023590;28;19945;-70
2024/03/17 02:07:55;;;;;;;;;;;;;;;-144.99;100.00;52552.03;5031145;28;19952;-69
2024/03/17 02:10:21;;;;;;;;;;;;;;;-144.99;100.00;52590.78;5019409;28;20210;-65
2024/03/17 02:12:48;;;;;;;;;;;;;;;-144.99;100.00;52584.66;5028989;28;19925;-69
2024/03/17 02:15:14;;;;;;;;;;;;;;;-144.99;100.00;52550.00;5028744;28;19925;-68
2024/03/17 02:17:40;;;;;;;;;;;;;;;-144.99;100.00;52572.44;5027082;28;19933;-68
2024/03/17 02:20:07;;;;;;;;;;;;;;;-144.99;100.00;52552.03;5025240;28;19932;-69
2024/03/17 02:22:35;;;;;;;;;;;;;;;-144.99;100.00;52547.97;5028790;28;19991;-71
2024/03/17 02:25:02;;;;;;;;;;;;;;;-144.99;100.00;52525.56;5028010;28;19952;-70
2024/03/17 02:27:28;;;;;;;;;;;;;;;-144.99;100.00;52521.47;5026732;28;20452;-71
2024/03/17 02:29:55;;;;;;;;;;;;;;;-144.99;100.00;52590.78;5027266;28;19929;-75
2024/03/17 02:32:22;;;;;;;;;;;;;;;-144.99;100.00;52598.94;5025377;28;19929;-73
2024/03/17 02:34:49;;;;;;;;;;;;;;;-144.99;100.00;52566.31;5023757;28;19925;-75
2024/03/17 02:37:14;;;;;;;;;;;;;;;-144.99;100.00;52600.97;5011042;28;19925;-74
2024/03/17 02:39:42;;;;;;;;;;;;;;;-144.99;100.00;52554.09;5015761;28;19933;-77
2024/03/17 02:42:10;;;;;;;;;;;;;;;-144.99;100.00;52578.53;5010271;28;20178;-74
2024/03/17 02:44:37;;;;;;;;;;;;;;;-144.99;100.00;52566.31;5009617;28;19972;-70
2024/03/17 02:47:04;;;;;;;;;;;;;;;-144.99;100.00;52558.16;5010499;28;19979;-69
2024/03/17 02:49:36;;;;;;;;;;;;;;;-144.99;100.00;52562.25;5009772;28;19926;-69
2024/03/17 02:52:04;;;;;;;;;;;;;;;-144.99;100.00;52611.16;5010213;28;19937;-67
2024/03/17 02:54:30;;;;;;;;;;;;;;;-144.99;100.00;52550.00;5008047;28;19936;-63
2024/03/17 02:56:58;;;;;;;;;;;;;;;-144.99;100.00;52590.78;5002138;28;19929;-63
2024/03/17 02:59:25;;;;;;;;;;;;;;;-144.99;100.00;52562.25;5009016;28;19929;-62
2024/03/17 03:01:53;;;;;;;;;;;;;;;-144.99;100.00;52574.47;5008679;28;20406;-63
2024/03/17 03:04:20;;;;;;;;;;;;;;;-144.99;100.00;52582.63;5006799;28;20013;-63
2024/03/17 03:06:46;;;;;;;;;;;;;;;-144.99;100.00;52600.97;5004807;28;20008;-64
2024/03/17 03:09:14;;;;;;;;;;;;;;;-144.99;100.00;52580.59;5001353;28;20107;-64
2024/03/17 03:11:41;;;;;;;;;;;;;;;-144.99;100.00;52576.50;5005343;28;20361;-66
2024/03/17 03:14:09;;;;;;;;;;;;;;;-144.99;100.00;52578.53;5008847;28;19925;-65
2024/03/17 03:16:35;;;;;;;;;;;;;;;-144.99;100.00;52562.25;5006845;28;20044;-66
2024/03/17 03:19:02;;;;;;;;;;;;;;;-144.99;100.00;52582.63;5008008;28;19976;-67
2024/03/17 03:21:28;;;;;;;;;;;;;;;-144.99;100.00;52570.38;5008634;28;20391;-67
2024/03/17 03:23:55;;;;;;;;;;;;;;;-144.99;100.00;52564.28;5005675;28;19929;-66
2024/03/17 03:26:21;;;;;;;;;;;;;;;-144.99;100.00;52570.38;5007606;28;19975;-65
2024/03/17 03:28:48;;;;;;;;;;;;;;;-144.99;100.00;52582.63;5008743;28;19936;-65
2024/03/17 03:31:16;;;;;;;;;;;;;;;-144.99;100.00;52611.16;5008095;28;19925;-66
2024/03/17 03:33:43;;;;;;;;;;;;;;;-144.99;100.00;52570.38;4999037;28;19940;-69
2024/03/17 03:36:10;;;;;;;;;;;;;;;-144.99;100.00;52545.94;5007922;28;20344;-70
2024/03/17 03:38:37;;;;;;;;;;;;;;;-144.99;100.00;52586.69;5008391;28;19925;-70
2024/03/17 03:41:14;;;;;;;;;;;;;;;-144.99;100.00;52558.16;5006989;28;19933;-70
2024/03/17 03:43:41;;;;;;;;;;;;;;;-144.99;100.00;52570.38;4997446;28;20288;-71
2024/03/17 03:46:08;;;;;;;;;;;;;;;-144.99;100.00;52550.00;5001498;28;19961;-70
2024/03/17 03:48:36;;;;;;;;;;;;;;;-144.99;100.00;52509.25;5008100;28;19963;-64
2024/03/17 03:51:06;;;;;;;;;;;;;;;-144.99;100.00;52541.84;4999753;28;20373;-69
2024/03/17 03:53:32;;;;;;;;;;;;;;;-144.99;100.00;52529.63;4997616;28;20375;-68
2024/03/17 03:55:59;;;;;;;;;;;;;;;-144.99;100.00;52566.31;5007101;28;19933;-68
2024/03/17 03:58:27;;;;;;;;;;;;;;;-144.99;100.00;52529.63;5007844;28;20369;-69
2024/03/17 04:00:54;;;;;;;;;;;;;;;-144.99;100.00;52578.53;5006807;28;19980;-68
2024/03/17 04:03:20;;;;;;;;;;;;;;;-144.99;100.00;52576.50;5001368;28;19926;-68
2024/03/17 04:05:48;;;;;;;;;;;;;;;-144.99;100.00;52558.16;5011996;28;20012;-68
2024/03/17 04:08:14;;;;;;;;;;;;;;;-144.99;100.00;52603.00;5009479;28;19925;-68
2024/03/17 04:10:41;;;;;;;;;;;;;;;-144.99;100.00;52582.63;5001805;28;19933;-67
2024/03/17 04:13:08;;;;;;;;;;;;;;;-144.99;100.00;52582.63;5011972;28;19926;-69
2024/03/17 04:15:34;;;;;;;;;;;;;;;-144.99;100.00;52537.78;5003307;28;19988;-69
2024/03/17 04:18:01;;;;;;;;;;;;;;;-144.99;100.00;52541.84;5011313;28;19937;-68
2024/03/17 04:20:28;;;;;;;;;;;;;;;-144.99;100.00;52509.25;5011269;28;19930;-69
2024/03/17 04:22:56;;;;;;;;;;;;;;;-144.99;100.00;52525.56;5011228;28;19934;-66
2024/03/17 04:25:22;;;;;;;;;;;;;;;-144.99;100.00;52527.59;5011261;28;20472;-66
2024/03/17 04:27:49;;;;;;;;;;;;;;;-144.99;100.00;52547.97;5011409;28;19988;-70
2024/03/17 04:30:16;;;;;;;;;;;;;;;-144.99;100.00;52529.63;5011121;28;20024;-70
2024/03/17 04:32:42;;;;;;;;;;;;;;;-144.99;100.00;52517.41;5011375;28;19926;-67
2024/03/17 04:35:09;;;;;;;;;;;;;;;-144.99;100.00;52570.38;5011676;28;19979;-68
2024/03/17 04:37:38;;;;;;;;;;;;;;;-144.99;100.00;52566.31;5005824;28;20372;-68
2024/03/17 04:40:09;;;;;;;;;;;;;;;-144.99;100.00;52521.47;5011652;28;19941;-71
2024/03/17 04:42:35;;;;;;;;;;;;;;;-144.99;100.00;52558.16;5011407;28;19930;-65
2024/03/17 04:45:02;;;;;;;;;;;;;;;-144.99;100.00;52590.78;5011540;28;19925;-64
2024/03/17 04:47:29;;;;;;;;;;;;;;;-144.99;100.00;52541.84;5010564;28;19984;-65
2024/03/17 04:49:55;;;;;;;;;;;;;;;-144.99;100.00;52560.19;5010769;28;20384;-66
2024/03/17 04:52:22;;;;;;;;;;;;;;;-144.99;100.00;52537.78;5009350;28;19977;-66
2024/03/17 04:54:48;;;;;;;;;;;;;;;-144.99;100.00;52564.28;5002723;28;20192;-67
2024/03/17 04:57:16;;;;;;;;;;;;;;;-144.99;100.00;52576.50;5009143;28;19925;-64
2024/03/17 04:59:43;;;;;;;;;;;;;;;-144.99;100.00;52562.25;5010838;28;20364;-66
2024/03/17 05:02:09;;;;;;;;;;;;;;;-144.99;100.00;52582.63;5010038;28;20502;-66
2024/03/17 05:04:36;;;;;;;;;;;;;;;-144.99;100.00;52572.44;5003012;28;19979;-68
2024/03/17 05:07:02;;;;;;;;;;;;;;;-144.99;100.00;52570.38;4998091;28;19930;-68
2024/03/17 05:09:29;;;;;;;;;;;;;;;-144.99;100.00;52558.16;4999248;28;19930;-67
2024/03/17 05:11:55;;;;;;;;;;;;;;;-144.99;100.00;52558.16;4998849;28;20236;-67
2024/03/17 05:14:23;;;;;;;;;;;;;;;-144.99;100.00;52545.94;5006719;28;20467;-68
2024/03/17 05:16:50;;;;;;;;;;;;;;;-144.99;100.00;52558.16;4999386;28;19926;-68
2024/03/17 05:19:17;;;;;;;;;;;;;;;-144.99;100.00;52596.88;4998440;28;19933;-69
2024/03/17 05:21:44;;;;;;;;;;;;;;;-144.99;100.00;52584.66;5004252;28;19953;-65
2024/03/17 05:24:11;;;;;;;;;;;;;;;-144.99;100.00;52572.44;5005147;28;19976;-64
2024/03/17 05:26:37;;;;;;;;;;;;;;;-144.99;100.00;52547.97;5003725;28;19961;-64
2024/03/17 05:29:04;;;;;;;;;;;;;;;-144.99;100.00;52543.91;5009153;28;20364;-63
2024/03/17 05:31:32;;;;;;;;;;;;;;;-144.99;100.00;52550.00;5009660;28;19964;-65
2024/03/17 05:33:58;;;;;;;;;;;;;;;-144.99;100.00;52558.16;5000858;28;19935;-65
2024/03/17 05:36:25;;;;;;;;;;;;;;;-144.99;100.00;52537.78;5009716;28;19957;-64
2024/03/17 05:38:51;;;;;;;;;;;;;;;-144.99;100.00;52584.66;5010084;28;20399;-64
2024/03/17 05:41:18;;;;;;;;;;;;;;;-144.99;100.00;52570.38;5005758;28;19925;-64
2024/03/17 05:43:44;;;;;;;;;;;;;;;-144.99;100.00;52558.16;5009902;28;20095;-63
2024/03/17 05:46:11;;;;;;;;;;;;;;;-144.99;100.00;52556.13;5009176;28;19968;-64
2024/03/17 05:48:40;;;;;;;;;;;;;;;-144.99;100.00;52541.84;5004933;28;20015;-64
2024/03/17 05:51:06;;;;;;;;;;;;;;;-144.99;100.00;52566.31;5007913;28;20360;-65
2024/03/17 05:53:33;;;;;;;;;;;;;;;-144.99;100.00;52562.25;5009916;28;19968;-65
2024/03/17 05:56:00;;;;;;;;;;;;;;;-144.99;100.00;52570.38;5009396;28;19996;-64
2024/03/17 05:58:27;;;;;;;;;;;;;;;-144.99;100.00;52505.16;5005117;28;19937;-65
2024/03/17 06:00:53;;;;;;;;;;;;;;;-144.99;100.00;52556.13;5006321;28;19995;-64
2024/03/17 06:03:21;;;;;;;;;;;;;;;-144.99;100.00;52562.25;5010443;28;19999;-64
2024/03/17 06:05:49;;;;;;;;;;;;;;;-144.99;100.00;52545.94;5009306;28;19937;-58
2024/03/17 06:08:16;;;;;;;;;;;;;;;-144.99;100.00;52590.78;5009192;28;20011;-67
2024/03/17 06:10:43;;;;;;;;;;;;;;;-144.99;100.00;52570.38;5009279;28;19925;-66
2024/03/17 06:13:11;;;;;;;;;;;;;;;-144.99;100.00;52533.69;5009159;28;19957;-67
2024/03/17 06:15:38;;;;;;;;;;;;;;;-144.99;100.00;52537.78;5009494;28;19944;-69
2024/03/17 06:18:08;;;;;;;;;;;;;;;-144.99;100.00;52562.25;5007431;28;19984;-69
2024/03/17 06:20:35;;;;;;;;;;;;;;;-144.99;100.00;52537.78;5010563;28;20273;-69
2024/03/17 06:23:03;;;;;;;;;;;;;;;-144.99;100.00;52582.63;5010460;28;19999;-69
2024/03/17 06:25:29;;;;;;;;;;;;;;;-144.99;100.00;52554.09;5009953;28;20000;-68
2024/03/17 06:27:57;;;;;;;;;;;;;;;-144.99;100.00;52517.41;5008443;28;19964;-68
2024/03/17 06:30:23;;;;;;;;;;;;;;;-144.99;100.00;52566.31;5007734;28;20007;-67
2024/03/17 06:32:50;;;;;;;;;;;;;;;-144.99;100.00;52578.53;4998725;28;19999;-67
2024/03/17 06:35:18;;;;;;;;;;;;;;;-144.99;100.00;52525.56;5004814;28;19925;-67
2024/03/17 06:37:44;;;;;;;;;;;;;;;-144.99;100.00;52574.47;5007483;28;19926;-67
2024/03/17 06:40:13;;;;;;;;;;;;;;;-144.99;100.00;52476.63;5008600;28;19972;-67
2024/03/17 06:42:40;;;;;;;;;;;;;;;-144.99;100.00;52501.09;5003083;28;20028;-69
2024/03/17 06:45:08;;;;;;;;;;;;;;;-144.99;100.00;52531.66;5008633;28;20023;-68
2024/03/17 06:47:34;;;;;;;;;;;;;;;-144.99;100.00;52497.00;5007007;28;19929;-68
2024/03/17 06:50:00;;;;;;;;;;;;;;;-144.99;100.00;52509.25;5007487;28;19929;-68
2024/03/17 06:52:27;;;;;;;;;;;;;;;-144.99;100.00;52490.91;4997085;28;19930;-68
2024/03/17 06:54:53;;;;;;;;;;;;;;;-144.99;100.00;52521.47;5000037;28;19929;-68
2024/03/17 06:57:21;;;;;;;;;;;;;;;-144.99;100.00;52529.63;5004361;28;20391;-65
2024/03/17 06:59:48;;;;;;;;;;;;;;;-144.99;100.00;52521.47;5000286;28;19941;-66
2024/03/17 07:02:17;;;;;;;;;;;;;;;-144.99;100.00;52513.31;5005068;28;19926;-67
2024/03/17 07:04:43;;;;;;;;;;;;;;;-144.99;100.00;52505.16;4999862;28;20012;-67
2024/03/17 07:07:10;;;;;;;;;;;;;;;-144.99;100.00;52521.47;5009498;28;19929;-65
2024/03/17 07:09:35;;;;;;;;;;;;;;;-144.99;100.00;52488.84;5010060;28;20041;-65
2024/03/17 07:12:02;;;;;;;;;;;;;;;-144.99;100.00;52525.56;5009631;28;20027;-65
2024/03/17 07:14:31;;;;;;;;;;;;;;;-144.99;100.00;52464.41;5009561;28;20358;-65
2024/03/17 07:16:58;;;;;;;;;;;;;;;-144.99;100.00;52480.72;5008997;28;19930;-66
2024/03/17 07:19:24;;;;;;;;;;;;;;;-144.99;100.00;52476.63;5009154;28;19929;-65
2024/03/17 07:21:51;;;;;;;;;;;;;;;-144.99;100.00;52533.69;5008521;28;20398;-65
2024/03/17 07:24:18;;;;;;;;;;;;;;;-144.99;100.00;52486.81;5000300;28;19972;-65
2024/03/17 07:26:44;;;;;;;;;;;;;;;-144.99;100.00;52497.00;5007726;28;19937;-65
2024/03/17 07:29:10;;;;;;;;;;;;;;;-144.99;100.00;52513.31;5008266;28;19974;-74
2024/03/17 07:31:38;;;;;;;;;;;;;;;-144.99;100.00;52474.59;5008291;28;19925;-74
2024/03/17 07:34:05;;;;;;;;;;;;;;;-144.99;99.50;52480.72;4992425;22;19971;-69
2024/03/17 07:36:31;;;;;;;;;;;;;;;-144.99;97.22;52499.06;4924582;29;20482;-70
2024/03/17 07:38:58;;;;;;;;;;;;;;;-144.99;96.02;52456.25;4926368;29;20429;-70
2024/03/17 07:41:25;;;;;;;;;;;;;;;-144.99;94.40;52468.47;4928690;29;19926;-70
2024/03/17 07:43:51;;;;;;;;;;;;;;;-144.99;92.54;52513.31;4928057;28;20021;-71
2024/03/17 07:46:17;;;;;;;;;;;;;;;-144.99;90.01;52460.31;4969781;28;19980;-71
2024/03/17 07:48:46;;;;;;;;;;;;;;;-144.99;88.23;52460.31;4966981;28;19977;-71
2024/03/17 07:51:13;;;;;;;;;;;;;;;-144.99;85.51;52480.72;4989446;28;19977;-70
2024/03/17 07:53:40;;;;;;;;;;;;;;;-144.99;83.43;52454.22;4983551;28;20397;-71
2024/03/17 07:56:09;;;;;;;;;;;;;;;-144.99;81.54;52476.63;4977605;28;19973;-72
2024/03/17 07:58:36;;;;;;;;;;;;;;;-144.99;79.16;52444.03;4974441;28;19979;-70
2024/03/17 08:01:03;;;;;;;;;;;;;;;-144.99;78.48;52480.72;4974048;28;19939;-68
2024/03/17 08:03:31;;;;;;;;;;;;;;;-144.99;76.66;52476.63;4968083;28;20305;-72
2024/03/17 08:05:58;;;;;;;;;;;;;;;-144.99;74.29;52415.47;4964951;28;19931;-70
2024/03/17 08:08:25;;;;;;;;;;;;;;;-144.99;74.33;52452.16;4991524;28;20416;-71
2024/03/17 08:10:51;;;;;;;;;;;;;;;-144.99;73.73;52431.78;4989900;28;20038;-70
2024/03/17 08:13:18;;;;;;;;;;;;;;;-144.99;72.69;52482.75;4938082;28;19957;-72
2024/03/17 08:15:45;;;;;;;;;;;;;;;-144.99;72.25;52452.16;4982121;28;20013;-71
2024/03/17 08:18:11;;;;;;;;;;;;;;;-144.99;71.48;52439.94;4974988;28;20101;-71
2024/03/17 08:20:39;;;;;;;;;;;;;;;-144.99;70.31;52488.84;4973361;28;19950;-73
2024/03/17 08:23:07;;;;;;;;;;;;;;;-144.99;69.82;52456.25;5004463;28;19925;-73
2024/03/17 08:25:33;;;;;;;;;;;;;;;-144.99;69.38;52456.25;4962240;28;20040;-73
2024/03/17 08:28:00;;;;;;;;;;;;;;;-144.99;67.85;52407.31;4989736;28;20011;-74
2024/03/17 08:30:26;;;;;;;;;;;;;;;-144.99;66.09;52452.16;4979061;28;19925;-74
2024/03/17 08:32:53;;;;;;;;;;;;;;;-144.99;66.18;52419.56;4993549;28;19940;-73
2024/03/17 08:35:19;;;;;;;;;;;;;;;-144.99;64.47;52435.88;4941280;28;20008;-74
2024/03/17 08:37:46;;;;;;;;;;;;;;;-144.99;64.40;52429.75;4927699;28;19970;-73
2024/03/17 08:40:14;;;;;;;;;;;;;;;-144.99;63.46;52476.63;4927626;28;19950;-73
2024/03/17 08:42:40;;;;;;;;;;;;;;;-144.99;64.00;52456.25;4927610;28;19930;-73
2024/03/17 08:45:08;;;;;;;;;;;;;;;-144.99;63.19;52431.78;4930773;28;19933;-72
2024/03/17 08:47:34;;;;;;;;;;;;;;;-144.99;62.33;52456.25;4955597;28;20659;-72
2024/03/17 08:50:03;;;;;;;;;;;;;;;-144.99;61.25;52423.63;4946776;28;20013;-72
2024/03/17 08:52:31;;;;;;;;;;;;;;;-144.99;59.82;52384.91;4991636;28;19932;-72
2024/03/17 08:54:58;;;;;;;;;;;;;;;-144.99;60.05;52439.94;4984984;28;19927;-71
2024/03/17 08:57:26;;;;;;;;;;;;;;;-144.99;59.83;52413.44;4976595;28;19925;-72
2024/03/17 08:59:53;;;;;;;;;;;;;;;-144.99;59.63;52431.78;4973581;28;20306;-72
2024/03/17 09:02:19;;;;;;;;;;;;;;;-144.99;60.38;52427.72;4978440;28;20487;-71
2024/03/17 09:04:46;;;;;;;;;;;;;;;-144.99;59.93;52444.03;4926115;29;19935;-72
2024/03/17 09:07:13;;;;;;;;;;;;;;;-144.99;59.65;52419.56;4936525;28;19974;-73
2024/03/17 09:09:40;;;;;;;;;;;;;;;-144.99;59.21;52419.56;4994504;28;20027;-73
2024/03/17 09:12:06;;;;;;;;;;;;;;;-144.99;58.68;52472.56;4993658;28;19935;-72
2024/03/17 09:14:34;;;;;;;;;;;;;;;-144.99;58.91;52452.16;4982838;28;20602;-72
2024/03/17 09:17:00;;;;;;;;;;;;;;;-144.99;58.00;52419.56;4984877;28;19929;-72
2024/03/17 09:19:28;;;;;;;;;;;;;;;-144.99;57.80;52419.56;4953008;28;20011;-72
2024/03/17 09:21:55;;;;;;;;;;;;;;;-144.99;58.18;52397.13;4979088;28;19939;-72
2024/03/17 09:24:21;;;;;;;;;;;;;;;-144.99;57.17;52376.75;4991675;28;19949;-72
2024/03/17 09:26:48;;;;;;;;;;;;;;;-144.99;57.01;52374.72;4952143;28;19927;-73
2024/03/17 09:29:15;;;;;;;;;;;;;;;-144.99;56.84;52448.09;4989653;28;19929;-71
2024/03/17 09:31:43;;;;;;;;;;;;;;;-144.99;56.34;52407.31;4960074;28;19933;-72
2024/03/17 09:34:10;;;;;;;;;;;;;;;-144.99;56.32;52395.09;4950291;28;20014;-72
2024/03/17 09:36:36;;;;;;;;;;;;;;;-144.99;56.23;52415.47;4981182;28;20387;-72
2024/03/17 09:39:05;;;;;;;;;;;;;;;-144.99;56.14;52437.91;4932729;28;20028;-72
2024/03/17 09:41:31;;;;;;;;;;;;;;;-144.99;56.53;52386.94;4931190;28;19937;-73
2024/03/17 09:43:58;;;;;;;;;;;;;;;-144.99;56.45;52433.81;4932662;28;20018;-71
2024/03/17 09:46:25;;;;;;;;;;;;;;;-144.99;55.78;52366.56;4976411;28;19957;-70
2024/03/17 09:48:53;;;;;;;;;;;;;;;-144.99;54.99;52386.94;4933706;28;19938;-72
2024/03/17 09:51:21;;;;;;;;;;;;;;;-144.99;54.75;52382.88;4929867;28;19966;-72
2024/03/17 09:53:48;;;;;;;;;;;;;;;-144.99;54.03;52358.41;4952475;28;20017;-72
2024/03/17 09:56:16;;;;;;;;;;;;;;;-144.99;53.02;52346.19;4961583;28;19945;-72
2024/03/17 09:58:43;;;;;;;;;;;;;;;-144.99;52.07;52370.63;4930915;28;20311;-73
2024/03/17 10:01:09;;;;;;;;;;;;;;;-144.99;51.67;52342.09;4940617;28;19933;-72
2024/03/17 10:03:42;;;;;;;;;;;;;;;-144.99;51.50;52354.34;4961467;28;20011;-73
2024/03/17 10:06:11;;;;;;;;;;;;;;;-144.99;51.07;52329.88;4941449;28;20721;-72
2024/03/17 10:08:41;;;;;;;;;;;;;;;-144.99;50.25;52301.34;4933747;28;19930;-71
2024/03/17 10:11:08;;;;;;;;;;;;;;;-144.99;50.90;52309.50;4930861;28;20395;-75
2024/03/17 10:13:34;;;;;;;;;;;;;;;-144.99;49.88;52358.41;4937193;28;19934;-71
2024/03/17 10:16:01;;;;;;;;;;;;;;;-144.99;49.35;52354.34;4933816;28;20034;-72
2024/03/17 10:18:27;;;;;;;;;;;;;;;-144.99;49.92;52366.56;4931558;28;20391;-73
2024/03/17 10:20:56;;;;;;;;;;;;;;;-144.99;50.85;52362.50;4971400;28;20167;-72
2024/03/17 10:23:23;;;;;;;;;;;;;;;-144.99;51.32;52336.00;4929932;28;19933;-72
2024/03/17 10:25:49;;;;;;;;;;;;;;;-144.99;51.36;52374.72;4933688;28;19927;-73
2024/03/17 10:28:16;;;;;;;;;;;;;;;-144.99;52.39;52384.91;4929445;28;19979;-72
2024/03/17 10:30:44;;;;;;;;;;;;;;;-144.99;52.71;52374.72;4929356;28;19984;-71
2024/03/17 10:33:25;;;;;;;;;;;;;;;-144.99;52.34;52323.75;4928963;28;19973;-74
2024/03/17 10:35:51;;;;;;;;;;;;;;;-144.99;52.22;52329.88;4961418;28;19929;-73
2024/03/17 10:38:17;;;;;;;;;;;;;;;-144.99;52.28;52301.34;4945654;28;20040;-73
2024/03/17 10:40:46;;;;;;;;;;;;;;;-144.99;52.33;52297.25;4932838;28;20014;-73
2024/03/17 10:43:11;;;;;;;;;;;;;;;-144.99;51.90;52289.13;4930795;28;19927;-73
2024/03/17 10:45:38;;;;;;;;;;;;;;;-144.99;51.07;52264.66;4928337;28;19969;-72
2024/03/17 10:48:07;;;;;;;;;;;;;;;-144.99;50.41;52246.31;4941621;28;20422;-72
2024/03/17 10:50:36;;;;;;;;;;;;;;;-144.99;49.85;52215.75;4951173;28;20016;-73
2024/03/17 10:53:03;;;;;;;;;;;;;;;-144.99;48.88;52181.09;4938361;28;20025;-72
2024/03/17 10:55:33;;;;;;;;;;;;;;;-144.99;48.79;52199.44;4928881;28;20503;-71
2024/03/17 10:58:04;;;;;;;;;;;;;;;-144.99;48.17;52191.28;4946091;28;19981;-73
2024/03/17 11:00:31;;;;;;;;;;;;;;;-144.99;47.77;52170.91;4953813;28;20024;-73
2024/03/17 11:02:58;;;;;;;;;;;;;;;-144.99;47.55;52187.19;4936355;28;19927;-75
2024/03/17 11:05:25;;;;;;;;;;;;;;;-144.99;47.68;52191.28;4931159;28;20395;-73
2024/03/17 11:07:54;;;;;;;;;;;;;;;-144.99;47.57;52183.13;4950026;28;19930;-74
2024/03/17 11:10:21;;;;;;;;;;;;;;;-144.99;47.64;52187.19;4931012;28;19931;-74
2024/03/17 11:12:49;;;;;;;;;;;;;;;-144.99;48.38;52244.28;4925070;28;19937;-74
2024/03/17 11:15:33;;;;;;;;;;;;;;;-144.99;48.75;52223.88;4936212;28;19926;-72
2024/03/17 11:18:16;;;;;;;;;;;;;;;-144.99;48.84;52244.28;4926226;28;20022;-74
2024/03/17 11:20:44;;;;;;;;;;;;;;;-144.99;48.95;52285.03;4944312;28;19931;-75
2024/03/17 11:23:26;;;;;;;;;;;;;;;-144.99;49.20;52280.97;4928453;28;19933;-76
2024/03/17 11:25:53;;;;;;;;;;;;;;;-144.99;49.13;52280.97;4923131;28;19987;-75
2024/03/17 11:28:46;;;;;;;;;;;;;;;-144.99;49.12;52280.97;4924063;28;20418;-74
2024/03/17 11:31:27;;;;;;;;;;;;;;;-144.99;49.05;52215.75;4944690;28;19934;-73
2024/03/17 11:33:55;;;;;;;;;;;;;;;-144.99;49.04;52215.75;4924428;28;20513;-72
2024/03/17 11:36:34;;;;;;;;;;;;;;;-144.99;48.71;52191.28;4958854;28;19953;-72
2024/03/17 11:39:03;;;;;;;;;;;;;;;-144.99;48.28;52146.44;4958470;28;20017;-73
2024/03/17 11:41:40;;;;;;;;;;;;;;;-144.99;48.05;52121.97;4931843;28;19930;-72
2024/03/17 11:44:15;;;;;;;;;;;;;;;-144.99;46.90;52085.31;4954759;28;20410;-72
2024/03/17 11:46:42;;;;;;;;;;;;;;;-144.99;45.92;52105.69;4927373;28;19938;-73
2024/03/17 11:49:16;;;;;;;;;;;;;;;-144.99;45.56;52058.81;4924798;28;19965;-74
2024/03/17 11:51:44;;;;;;;;;;;;;;;-144.99;45.42;52109.75;4947790;28;19932;-73
2024/03/17 11:54:13;;;;;;;;;;;;;;;-144.99;44.66;52064.91;4960090;28;19977;-74
2024/03/17 11:56:39;;;;;;;;;;;;;;;-144.99;45.09;52111.78;4937149;28;19930;-73
2024/03/17 11:59:05;;;;;;;;;;;;;;;-144.99;45.06;52091.41;4920026;28;20036;-74
2024/03/17 12:01:32;;;;;;;;;;;;;;;-144.99;46.08;52126.06;4923300;28;19931;-75
2024/03/17 12:04:03;;;;;;;;;;;;;;;-144.99;45.57;52121.97;4923699;28;19966;-75
2024/03/17 12:06:30;;;;;;;;;;;;;;;-144.99;46.39;52105.69;4922897;28;20160;-72
2024/03/17 12:09:07;;;;;;;;;;;;;;;-144.99;46.24;52117.91;4925474;28;20035;-73
2024/03/17 12:11:33;;;;;;;;;;;;;;;-144.99;47.04;52121.97;4925584;28;19931;-74
2024/03/17 12:13:59;;;;;;;;;;;;;;;-144.99;46.19;52097.53;4930475;28;20505;-73
2024/03/17 12:16:25;;;;;;;;;;;;;;;-144.99;46.45;52240.19;4932795;28;19973;-73
2024/03/17 12:18:51;;;;;;;;;;;;;;;-144.99;46.86;52268.72;4924673;28;19927;-73
2024/03/17 12:21:17;;;;;;;;;;;;;;;-144.99;47.44;52134.22;4944928;28;19997;-73